createdAt,value
2017-10-25T00:00:58.015Z,34.70
2017-10-25T00:01:57.714Z,36.40
2017-10-25T00:02:56.858Z,40.10
2017-10-25T00:03:57.133Z,33.20
2017-10-25T00:04:57.291Z,37.60
2017-10-25T00:05:57.500Z,35.00
2017-10-25T00:06:56.623Z,37.00
2017-10-25T00:07:57.025Z,39.50
2017-10-25T00:08:57.591Z,35.40
2017-10-25T00:09:57.004Z,39.20
2017-10-25T00:10:58.671Z,35.00
2017-10-25T00:11:57.125Z,36.30
2017-10-25T00:12:57.357Z,38.70
2017-10-25T00:13:57.241Z,32.60
2017-10-25T00:14:57.580Z,31.20
2017-10-25T00:15:57.442Z,32.50
2017-10-25T00:16:56.694Z,30.60
2017-10-25T00:17:56.567Z,33.90
2017-10-25T00:18:57.523Z,31.40
2017-10-25T00:19:56.826Z,32.60
2017-10-25T00:20:56.759Z,31.00
2017-10-25T00:21:57.291Z,32.50
2017-10-25T00:22:57.000Z,30.40
2017-10-25T00:23:56.956Z,30.50
2017-10-25T00:24:56.806Z,30.20
2017-10-25T00:25:56.830Z,29.40
2017-10-25T00:26:57.165Z,30.20
2017-10-25T00:27:58.333Z,30.60
2017-10-25T00:28:58.938Z,25.00
2017-10-25T00:29:56.916Z,29.10
2017-10-25T00:30:57.394Z,27.80
2017-10-25T00:31:57.307Z,23.80
2017-10-25T00:32:57.519Z,27.60
2017-10-25T00:33:58.279Z,27.40
2017-10-25T00:34:57.408Z,29.00
2017-10-25T00:35:57.347Z,22.50
2017-10-25T00:36:57.467Z,25.20
2017-10-25T00:37:57.741Z,23.80
2017-10-25T00:38:57.108Z,27.70
2017-10-25T00:39:57.532Z,22.90
2017-10-25T00:40:58.588Z,27.30
2017-10-25T00:41:57.770Z,27.40
2017-10-25T00:42:57.160Z,23.00
2017-10-25T00:43:57.528Z,22.50
2017-10-25T00:44:56.463Z,24.80
2017-10-25T00:45:57.847Z,25.60
2017-10-25T00:46:56.736Z,23.30
2017-10-25T00:47:57.102Z,24.20
2017-10-25T00:48:57.602Z,28.20
2017-10-25T00:49:56.550Z,24.80
2017-10-25T00:50:58.182Z,23.10
2017-10-25T00:51:57.108Z,23.20
2017-10-25T00:52:57.064Z,23.40
2017-10-25T00:53:56.963Z,23.40
2017-10-25T00:54:57.260Z,23.50
2017-10-25T00:55:58.164Z,25.70
2017-10-25T00:56:57.627Z,23.80
2017-10-25T00:57:56.889Z,23.70
2017-10-25T00:58:57.309Z,21.80
2017-10-25T00:59:57.568Z,20.80
2017-10-25T01:00:57.973Z,23.70
2017-10-25T01:01:56.911Z,28.40
2017-10-25T01:02:57.373Z,23.80
2017-10-25T01:03:58.603Z,22.70
2017-10-25T01:04:56.538Z,20.40
2017-10-25T01:05:56.816Z,24.00
2017-10-25T01:06:58.186Z,25.10
2017-10-25T01:07:57.511Z,24.40
2017-10-25T01:08:56.686Z,24.00
2017-10-25T01:09:56.726Z,25.40
2017-10-25T01:10:56.774Z,26.00
2017-10-25T01:11:58.173Z,24.20
2017-10-25T01:12:57.134Z,26.60
2017-10-25T01:13:57.631Z,24.60
2017-10-25T01:14:57.030Z,26.00
2017-10-25T01:15:57.456Z,25.00
2017-10-25T01:16:56.816Z,27.20
2017-10-25T01:17:57.740Z,26.60
2017-10-25T01:18:56.783Z,28.10
2017-10-25T01:19:56.710Z,34.60
2017-10-25T01:20:56.756Z,26.50
2017-10-25T01:21:57.191Z,28.10
2017-10-25T01:22:57.472Z,26.20
2017-10-25T01:23:56.956Z,26.70
2017-10-25T01:24:57.205Z,24.70
2017-10-25T01:25:57.163Z,27.60
2017-10-25T01:26:57.198Z,25.10
2017-10-25T01:27:56.745Z,26.00
2017-10-25T01:28:57.478Z,30.70
2017-10-25T01:29:57.291Z,28.90
2017-10-25T01:30:57.605Z,27.10
2017-10-25T01:31:57.503Z,27.60
2017-10-25T01:32:56.831Z,26.30
2017-10-25T01:33:57.691Z,28.10
2017-10-25T01:34:56.681Z,26.80
2017-10-25T01:35:56.927Z,23.70
2017-10-25T01:36:56.424Z,25.50
2017-10-25T01:37:56.936Z,25.30
2017-10-25T01:38:56.520Z,29.60
2017-10-25T01:39:57.128Z,25.90
2017-10-25T01:40:57.578Z,26.50
2017-10-25T01:41:57.293Z,28.80
2017-10-25T01:42:57.403Z,28.80
2017-10-25T01:43:56.687Z,31.30
2017-10-25T01:44:57.657Z,26.40
2017-10-25T01:45:56.772Z,29.30
2017-10-25T01:46:56.824Z,25.30
2017-10-25T01:47:56.993Z,26.40
2017-10-25T01:48:57.141Z,27.30
2017-10-25T01:49:57.683Z,25.80
2017-10-25T01:50:57.607Z,29.20
2017-10-25T01:51:56.610Z,24.90
2017-10-25T01:52:56.697Z,29.50
2017-10-25T01:53:56.890Z,25.00
2017-10-25T01:54:57.753Z,27.00
2017-10-25T01:55:56.884Z,27.50
2017-10-25T01:56:57.017Z,29.60
2017-10-25T01:57:57.459Z,25.30
2017-10-25T01:58:57.129Z,24.70
2017-10-25T01:59:58.084Z,24.80
2017-10-25T02:00:57.298Z,26.60
2017-10-25T02:01:56.570Z,28.10
2017-10-25T02:02:56.714Z,28.20
2017-10-25T02:03:56.856Z,28.50
2017-10-25T02:04:57.557Z,25.50
2017-10-25T02:05:57.414Z,25.00
2017-10-25T02:06:56.915Z,29.10
2017-10-25T02:07:57.329Z,25.60
2017-10-25T02:08:56.696Z,30.10
2017-10-25T02:09:57.232Z,25.70
2017-10-25T02:10:56.342Z,27.60
2017-10-25T02:11:56.804Z,26.00
2017-10-25T02:12:57.022Z,25.60
2017-10-25T02:13:57.302Z,27.70
2017-10-25T02:14:56.422Z,26.40
2017-10-25T02:15:56.932Z,26.30
2017-10-25T02:16:57.839Z,25.10
2017-10-25T02:17:56.986Z,26.50
2017-10-25T02:18:57.462Z,23.90
2017-10-25T02:19:57.041Z,29.10
2017-10-25T02:20:56.397Z,23.50
2017-10-25T02:21:57.637Z,26.10
2017-10-25T02:22:57.535Z,25.90
2017-10-25T02:23:56.457Z,21.80
2017-10-25T02:24:57.055Z,18.20
2017-10-25T02:25:57.490Z,24.00
2017-10-25T02:26:56.738Z,21.60
2017-10-25T02:27:57.341Z,20.50
2017-10-25T02:28:56.417Z,20.90
2017-10-25T02:29:56.588Z,19.00
2017-10-25T02:30:57.253Z,21.80
2017-10-25T02:31:56.703Z,19.30
2017-10-25T02:32:56.955Z,15.60
2017-10-25T02:33:57.627Z,19.50
2017-10-25T02:34:56.696Z,17.10
2017-10-25T02:35:56.649Z,17.30
2017-10-25T02:36:57.280Z,18.00
2017-10-25T02:37:56.888Z,16.90
2017-10-25T02:38:57.618Z,14.90
2017-10-25T02:39:56.685Z,13.70
2017-10-25T02:40:56.935Z,13.00
2017-10-25T02:41:57.515Z,16.40
2017-10-25T02:42:57.052Z,11.90
2017-10-25T02:43:57.620Z,12.30
2017-10-25T02:44:57.574Z,13.70
2017-10-25T02:45:57.056Z,14.50
2017-10-25T02:46:57.129Z,13.50
2017-10-25T02:47:56.632Z,12.20
2017-10-25T02:48:56.773Z,12.10
2017-10-25T02:49:57.437Z,15.40
2017-10-25T02:50:56.519Z,18.70
2017-10-25T02:51:56.966Z,15.30
2017-10-25T02:52:57.539Z,14.60
2017-10-25T02:53:57.147Z,11.90
2017-10-25T02:54:57.565Z,11.90
2017-10-25T02:55:58.280Z,11.10
2017-10-25T02:56:56.746Z,10.30
2017-10-25T02:57:57.318Z,12.30
2017-10-25T02:58:56.762Z,9.60
2017-10-25T02:59:57.696Z,14.20
2017-10-25T03:00:57.347Z,12.60
2017-10-25T03:01:56.899Z,11.30
2017-10-25T03:02:57.273Z,10.60
2017-10-25T03:03:56.308Z,13.60
2017-10-25T03:04:56.373Z,11.60
2017-10-25T03:05:57.181Z,9.60
2017-10-25T03:06:57.693Z,11.30
2017-10-25T03:07:57.803Z,8.60
2017-10-25T03:08:57.544Z,12.90
2017-10-25T03:09:57.149Z,11.60
2017-10-25T03:10:57.843Z,33.00
2017-10-25T03:11:57.268Z,11.10
2017-10-25T03:12:56.328Z,13.80
2017-10-25T03:13:57.692Z,9.50
2017-10-25T03:14:56.697Z,7.70
2017-10-25T03:15:57.056Z,11.50
2017-10-25T03:16:57.425Z,10.00
2017-10-25T03:17:56.838Z,10.60
2017-10-25T03:18:57.154Z,8.70
2017-10-25T03:19:56.656Z,8.80
2017-10-25T03:20:56.805Z,8.10
2017-10-25T03:21:57.409Z,13.10
2017-10-25T03:22:57.212Z,12.10
2017-10-25T03:23:57.386Z,11.20
2017-10-25T03:24:56.545Z,9.80
2017-10-25T03:25:56.728Z,9.00
2017-10-25T03:26:56.764Z,7.50
2017-10-25T03:27:58.228Z,8.60
2017-10-25T03:28:57.669Z,9.30
2017-10-25T03:29:56.842Z,8.40
2017-10-25T03:30:57.434Z,8.90
2017-10-25T03:31:56.812Z,11.40
2017-10-25T03:32:57.444Z,12.40
2017-10-25T03:33:56.894Z,10.50
2017-10-25T03:34:56.603Z,8.80
2017-10-25T03:35:56.927Z,8.90
2017-10-25T03:36:57.453Z,10.40
2017-10-25T03:37:56.948Z,10.70
2017-10-25T03:38:57.208Z,10.60
2017-10-25T03:40:00.889Z,7.90
2017-10-25T03:40:57.076Z,11.90
2017-10-25T03:41:56.971Z,6.60
2017-10-25T03:42:57.156Z,8.60
2017-10-25T03:43:57.762Z,8.30
2017-10-25T03:44:57.318Z,9.20
2017-10-25T03:45:56.218Z,8.20
2017-10-25T03:46:56.075Z,9.70
2017-10-25T03:47:56.536Z,9.00
2017-10-25T03:48:56.294Z,9.50
2017-10-25T03:49:56.814Z,9.40
2017-10-25T03:50:56.727Z,7.50
2017-10-25T03:51:57.006Z,5.90
2017-10-25T03:52:57.029Z,7.50
2017-10-25T03:53:56.974Z,7.10
2017-10-25T03:54:57.620Z,6.80
2017-10-25T03:55:56.683Z,9.00
2017-10-25T03:56:57.043Z,12.30
2017-10-25T03:57:57.062Z,11.40
2017-10-25T03:58:57.037Z,9.00
2017-10-25T03:59:57.291Z,7.00
2017-10-25T04:00:56.825Z,9.10
2017-10-25T04:01:57.219Z,6.30
2017-10-25T04:02:57.130Z,9.10
2017-10-25T04:03:57.041Z,8.50
2017-10-25T04:04:57.846Z,10.40
2017-10-25T04:05:57.109Z,12.20
2017-10-25T04:06:57.302Z,10.80
2017-10-25T04:07:57.345Z,11.10
2017-10-25T04:08:56.699Z,9.30
2017-10-25T04:09:57.436Z,11.20
2017-10-25T04:10:56.631Z,10.70
2017-10-25T04:11:56.556Z,10.10
2017-10-25T04:12:56.657Z,10.00
2017-10-25T04:13:56.642Z,12.30
2017-10-25T04:14:56.410Z,11.00
2017-10-25T04:15:56.977Z,10.70
2017-10-25T04:16:57.092Z,8.60
2017-10-25T04:17:57.314Z,11.30
2017-10-25T04:18:56.194Z,11.00
2017-10-25T04:19:57.047Z,12.00
2017-10-25T04:20:56.805Z,11.00
2017-10-25T04:21:57.269Z,11.70
2017-10-25T04:22:56.637Z,13.40
2017-10-25T04:23:56.995Z,11.00
2017-10-25T04:24:57.799Z,10.90
2017-10-25T04:25:56.710Z,13.10
2017-10-25T04:26:56.938Z,11.90
2017-10-25T04:27:59.437Z,13.70
2017-10-25T04:28:57.041Z,10.50
2017-10-25T04:29:56.897Z,13.60
2017-10-25T04:30:57.116Z,14.70
2017-10-25T04:31:58.014Z,13.90
2017-10-25T04:32:57.146Z,12.80
2017-10-25T04:33:56.276Z,15.00
2017-10-25T04:34:56.668Z,13.90
2017-10-25T04:35:57.356Z,15.10
2017-10-25T04:36:56.657Z,14.20
2017-10-25T04:38:13.526Z,17.90
2017-10-25T04:38:56.401Z,14.10
2017-10-25T04:39:56.708Z,15.00
2017-10-25T04:40:56.980Z,18.30
2017-10-25T04:41:57.118Z,17.90
2017-10-25T04:42:57.282Z,15.00
2017-10-25T04:43:56.162Z,14.40
2017-10-25T04:44:57.454Z,16.20
2017-10-25T04:45:56.797Z,13.10
2017-10-25T04:46:57.765Z,12.50
2017-10-25T04:47:57.167Z,18.90
2017-10-25T04:48:57.468Z,14.30
2017-10-25T04:49:56.836Z,17.00
2017-10-25T04:50:57.019Z,17.60
2017-10-25T04:51:57.073Z,16.10
2017-10-25T04:52:57.558Z,18.40
2017-10-25T04:53:57.389Z,16.00
2017-10-25T04:54:56.850Z,17.80
2017-10-25T04:55:57.030Z,17.90
2017-10-25T04:56:57.061Z,18.00
2017-10-25T04:57:56.301Z,20.70
2017-10-25T04:58:56.219Z,18.20
2017-10-25T04:59:57.061Z,21.50
2017-10-25T05:00:57.465Z,20.60
2017-10-25T05:01:56.445Z,20.60
2017-10-25T05:02:56.814Z,20.10
2017-10-25T05:03:57.374Z,21.20
2017-10-25T05:04:57.200Z,24.00
2017-10-25T05:05:56.895Z,24.70
2017-10-25T05:06:57.303Z,21.70
2017-10-25T05:07:57.062Z,20.70
2017-10-25T05:08:58.308Z,21.00
2017-10-25T05:09:56.876Z,25.90
2017-10-25T05:10:57.034Z,19.70
2017-10-25T05:11:57.755Z,22.00
2017-10-25T05:12:57.068Z,23.10
2017-10-25T05:13:57.122Z,24.40
2017-10-25T05:14:56.996Z,21.50
2017-10-25T05:15:57.313Z,25.30
2017-10-25T05:16:58.062Z,28.00
2017-10-25T05:17:56.313Z,27.90
2017-10-25T05:18:56.817Z,25.30
2017-10-25T05:19:57.207Z,26.00
2017-10-25T05:20:56.834Z,26.20
2017-10-25T05:21:57.151Z,26.10
2017-10-25T05:22:57.296Z,27.00
2017-10-25T05:23:56.584Z,27.10
2017-10-25T05:24:56.704Z,28.10
2017-10-25T05:25:57.878Z,28.30
2017-10-25T05:27:00.316Z,31.10
2017-10-25T05:28:00.295Z,31.10
2017-10-25T05:28:57.847Z,33.20
2017-10-25T05:29:57.253Z,30.50
2017-10-25T05:30:56.774Z,30.20
2017-10-25T05:31:58.026Z,27.00
2017-10-25T05:32:57.226Z,29.10
2017-10-25T05:33:58.436Z,28.30
2017-10-25T05:34:56.681Z,31.40
2017-10-25T05:35:59.917Z,32.40
2017-10-25T05:36:57.773Z,26.90
2017-10-25T05:37:57.805Z,27.30
2017-10-25T05:38:57.472Z,26.40
2017-10-25T05:39:58.374Z,25.00
2017-10-25T05:40:57.978Z,25.90
2017-10-25T05:41:58.321Z,26.60
2017-10-25T05:42:59.013Z,26.60
2017-10-25T05:43:58.033Z,28.50
2017-10-25T05:44:57.952Z,26.70
2017-10-25T05:45:57.099Z,27.70
2017-10-25T05:46:57.687Z,22.90
2017-10-25T05:47:58.073Z,26.90
2017-10-25T05:48:57.968Z,26.70
2017-10-25T05:49:56.542Z,26.60
2017-10-25T05:50:56.901Z,22.80
2017-10-25T05:51:57.055Z,29.40
2017-10-25T05:52:57.333Z,28.60
2017-10-25T05:53:56.714Z,26.90
2017-10-25T05:54:56.588Z,24.20
2017-10-25T05:55:57.999Z,24.20
2017-10-25T05:56:56.894Z,25.10
2017-10-25T05:57:56.739Z,24.40
2017-10-25T05:58:56.686Z,25.10
2017-10-25T05:59:57.598Z,22.10
2017-10-25T06:00:56.970Z,23.00
2017-10-25T06:01:57.018Z,26.70
2017-10-25T06:02:56.932Z,24.10
2017-10-25T06:03:57.394Z,24.70
2017-10-25T06:04:56.345Z,23.80
2017-10-25T06:05:56.899Z,26.10
2017-10-25T06:06:56.967Z,25.50
2017-10-25T06:07:57.957Z,24.50
2017-10-25T06:08:57.046Z,24.60
2017-10-25T06:09:57.001Z,22.30
2017-10-25T06:10:57.941Z,24.70
2017-10-25T06:11:57.020Z,26.50
2017-10-25T06:12:57.417Z,21.80
2017-10-25T06:13:56.982Z,20.90
2017-10-25T06:14:57.405Z,21.70
2017-10-25T06:15:57.710Z,22.70
2017-10-25T06:16:58.639Z,23.40
2017-10-25T06:17:57.069Z,20.10
2017-10-25T06:18:56.965Z,19.30
2017-10-25T06:19:56.957Z,21.70
2017-10-25T06:20:57.045Z,20.30
2017-10-25T06:21:57.186Z,19.00
2017-10-25T06:22:56.173Z,17.70
2017-10-25T06:23:56.573Z,22.30
2017-10-25T06:24:56.488Z,21.60
2017-10-25T06:25:57.506Z,18.20
2017-10-25T06:26:56.521Z,19.80
2017-10-25T06:27:57.303Z,18.10
2017-10-25T06:28:56.340Z,20.00
2017-10-25T06:29:56.395Z,17.50
2017-10-25T06:30:57.975Z,18.40
2017-10-25T06:31:58.445Z,19.60
2017-10-25T06:32:56.874Z,18.90
2017-10-25T06:33:56.923Z,17.40
2017-10-25T06:34:57.340Z,15.10
2017-10-25T06:35:57.357Z,16.20
2017-10-25T06:36:56.433Z,17.30
2017-10-25T06:37:57.250Z,15.90
2017-10-25T06:38:58.082Z,17.50
2017-10-25T06:39:56.249Z,17.30
2017-10-25T06:40:56.897Z,18.00
2017-10-25T06:41:56.965Z,18.60
2017-10-25T06:42:56.889Z,20.00
2017-10-25T06:43:57.492Z,19.90
2017-10-25T06:44:56.624Z,18.50
2017-10-25T06:45:57.038Z,17.20
2017-10-25T06:46:57.173Z,16.00
2017-10-25T06:47:56.956Z,20.10
2017-10-25T06:48:56.333Z,17.10
2017-10-25T06:49:56.576Z,17.50
2017-10-25T06:50:56.674Z,16.10
2017-10-25T06:51:56.901Z,17.80
2017-10-25T06:52:58.330Z,18.30
2017-10-25T06:53:56.295Z,18.00
2017-10-25T06:54:56.433Z,14.30
2017-10-25T06:55:56.991Z,16.90
2017-10-25T06:56:56.881Z,15.90
2017-10-25T06:57:58.039Z,16.00
2017-10-25T06:58:58.798Z,16.60
2017-10-25T06:59:57.455Z,17.00
2017-10-25T07:00:57.031Z,16.70
2017-10-25T07:01:56.916Z,18.50
2017-10-25T07:02:57.652Z,16.20
2017-10-25T07:03:57.032Z,14.00
2017-10-25T07:04:56.162Z,13.80
2017-10-25T07:05:57.444Z,19.00
2017-10-25T07:06:57.378Z,17.50
2017-10-25T07:07:57.003Z,18.00
2017-10-25T07:08:56.860Z,16.30
2017-10-25T07:09:57.254Z,15.50
2017-10-25T07:10:57.694Z,14.80
2017-10-25T07:11:56.722Z,18.40
2017-10-25T07:12:56.965Z,16.00
2017-10-25T07:13:56.736Z,14.20
2017-10-25T07:14:57.082Z,21.20
2017-10-25T07:15:56.683Z,14.90
2017-10-25T07:16:57.311Z,14.90
2017-10-25T07:17:57.223Z,15.10
2017-10-25T07:18:57.050Z,15.70
2017-10-25T07:19:56.526Z,14.90
2017-10-25T07:20:57.605Z,14.20
2017-10-25T07:21:56.550Z,15.10
2017-10-25T07:22:57.270Z,16.20
2017-10-25T07:23:56.984Z,12.60
2017-10-25T07:24:57.131Z,14.30
2017-10-25T07:25:57.997Z,15.70
2017-10-25T07:26:57.248Z,14.20
2017-10-25T07:27:56.625Z,14.50
2017-10-25T07:28:57.799Z,15.10
2017-10-25T07:30:00.435Z,14.80
2017-10-25T07:30:56.406Z,13.30
2017-10-25T07:31:57.384Z,14.10
2017-10-25T07:32:56.804Z,15.80
2017-10-25T07:33:58.511Z,14.90
2017-10-25T07:34:57.865Z,15.30
2017-10-25T07:35:57.258Z,11.80
2017-10-25T07:36:56.766Z,14.00
2017-10-25T07:37:56.696Z,15.00
2017-10-25T07:38:56.697Z,14.30
2017-10-25T07:39:56.830Z,12.60
2017-10-25T07:40:57.367Z,12.50
2017-10-25T07:41:56.722Z,14.40
2017-10-25T07:42:57.164Z,12.20
2017-10-25T07:43:56.484Z,13.00
2017-10-25T07:44:57.185Z,18.50
2017-10-25T07:45:56.331Z,14.20
2017-10-25T07:46:56.680Z,12.20
2017-10-25T07:47:56.765Z,10.90
2017-10-25T07:48:58.832Z,13.90
2017-10-25T07:49:57.320Z,11.80
2017-10-25T07:50:57.608Z,10.70
2017-10-25T07:51:57.234Z,12.60
2017-10-25T07:52:56.877Z,10.50
2017-10-25T07:53:56.864Z,11.60
2017-10-25T07:54:57.988Z,13.70
2017-10-25T07:55:57.411Z,15.80
2017-10-25T07:56:58.486Z,17.00
2017-10-25T07:57:58.619Z,12.80
2017-10-25T07:58:57.083Z,14.00
2017-10-25T07:59:57.522Z,12.00
2017-10-25T08:00:56.612Z,10.50
2017-10-25T08:01:56.919Z,10.20
2017-10-25T08:03:00.443Z,12.00
2017-10-25T08:03:56.556Z,10.70
2017-10-25T08:04:56.656Z,15.80
2017-10-25T08:05:57.600Z,11.60
2017-10-25T08:06:57.221Z,11.10
2017-10-25T08:07:56.735Z,15.30
2017-10-25T08:08:57.487Z,13.30
2017-10-25T08:09:56.800Z,13.40
2017-10-25T08:10:56.894Z,14.30
2017-10-25T08:11:57.784Z,13.50
2017-10-25T08:12:58.358Z,11.20
2017-10-25T08:13:57.414Z,15.30
2017-10-25T08:14:56.413Z,12.70
2017-10-25T08:15:56.911Z,12.10
2017-10-25T08:16:57.461Z,11.10
2017-10-25T08:17:56.842Z,14.50
2017-10-25T08:18:57.981Z,9.70
2017-10-25T08:19:57.492Z,12.00
2017-10-25T08:20:57.045Z,14.50
2017-10-25T08:21:56.572Z,14.10
2017-10-25T08:22:56.746Z,12.40
2017-10-25T08:23:57.232Z,9.00
2017-10-25T08:24:56.680Z,13.60
2017-10-25T08:25:57.007Z,11.10
2017-10-25T08:26:57.079Z,11.30
2017-10-25T08:27:56.213Z,13.00
2017-10-25T08:28:57.365Z,11.90
2017-10-25T08:29:56.946Z,12.60
2017-10-25T08:30:56.733Z,12.30
2017-10-25T08:31:57.041Z,14.70
2017-10-25T08:32:56.191Z,11.50
2017-10-25T08:33:56.825Z,14.00
2017-10-25T08:34:57.388Z,12.40
2017-10-25T08:35:56.654Z,13.80
2017-10-25T08:36:57.094Z,13.70
2017-10-25T08:37:59.361Z,11.00
2017-10-25T08:38:57.030Z,14.10
2017-10-25T08:39:56.243Z,12.40
2017-10-25T08:40:57.256Z,11.50
2017-10-25T08:41:56.681Z,15.40
2017-10-25T08:42:57.061Z,12.40
2017-10-25T08:43:56.518Z,12.50
2017-10-25T08:44:57.997Z,13.50
2017-10-25T08:45:56.716Z,10.50
2017-10-25T08:46:57.187Z,14.40
2017-10-25T08:47:56.747Z,12.90
2017-10-25T08:48:57.005Z,8.20
2017-10-25T08:49:56.441Z,8.80
2017-10-25T08:50:57.112Z,8.90
2017-10-25T08:51:56.213Z,8.50
2017-10-25T08:52:56.301Z,9.70
2017-10-25T08:53:56.417Z,10.70
2017-10-25T08:54:58.066Z,11.50
2017-10-25T08:55:57.590Z,10.30
2017-10-25T08:56:56.678Z,11.70
2017-10-25T08:57:57.678Z,10.80
2017-10-25T08:58:56.581Z,11.40
2017-10-25T08:59:57.170Z,10.10
2017-10-25T09:00:59.924Z,13.20
2017-10-25T09:01:57.332Z,13.80
2017-10-25T09:02:58.075Z,13.00
2017-10-25T09:03:56.343Z,11.70
2017-10-25T09:04:58.821Z,11.00
2017-10-25T09:05:57.127Z,11.90
2017-10-25T09:06:56.170Z,9.20
2017-10-25T09:07:56.597Z,11.10
2017-10-25T09:08:56.601Z,11.80
2017-10-25T09:09:56.811Z,11.30
2017-10-25T09:10:57.165Z,9.80
2017-10-25T09:11:56.577Z,9.60
2017-10-25T09:12:57.156Z,12.20
2017-10-25T09:13:56.602Z,13.40
2017-10-25T09:14:57.412Z,12.20
2017-10-25T09:15:58.142Z,15.10
2017-10-25T09:16:58.012Z,11.80
2017-10-25T09:17:58.194Z,9.70
2017-10-25T09:18:57.268Z,13.90
2017-10-25T09:19:58.676Z,11.30
2017-10-25T09:20:56.693Z,13.00
2017-10-25T09:21:58.572Z,12.30
2017-10-25T09:22:57.421Z,11.20
2017-10-25T09:23:57.589Z,11.00
2017-10-25T09:24:57.928Z,9.20
2017-10-25T09:25:56.921Z,9.80
2017-10-25T09:26:57.037Z,9.40
2017-10-25T09:27:57.142Z,9.70
2017-10-25T09:28:56.709Z,27.70
2017-10-25T09:29:56.905Z,8.00
2017-10-25T09:30:56.870Z,7.60
2017-10-25T09:31:57.370Z,10.80
2017-10-25T09:32:56.910Z,9.90
2017-10-25T09:33:57.664Z,8.40
2017-10-25T09:34:57.325Z,9.50
2017-10-25T09:35:56.726Z,8.30
2017-10-25T09:36:57.293Z,8.30
2017-10-25T09:37:58.141Z,10.30
2017-10-25T09:38:57.802Z,11.90
2017-10-25T09:39:57.011Z,9.20
2017-10-25T09:40:56.311Z,7.10
2017-10-25T09:41:56.757Z,8.40
2017-10-25T09:42:57.539Z,8.90
2017-10-25T09:43:56.961Z,7.80
2017-10-25T09:44:57.636Z,9.00
2017-10-25T09:45:57.096Z,11.40
2017-10-25T09:46:57.100Z,8.60
2017-10-25T09:47:57.572Z,9.40
2017-10-25T09:48:56.590Z,9.30
2017-10-25T09:49:56.882Z,8.60
2017-10-25T09:50:57.570Z,9.50
2017-10-25T09:51:56.934Z,9.10
2017-10-25T09:52:57.184Z,7.20
2017-10-25T09:53:56.753Z,7.40
2017-10-25T09:54:56.886Z,8.90
2017-10-25T09:55:57.491Z,10.30
2017-10-25T09:56:56.381Z,9.90
2017-10-25T09:57:56.437Z,12.30
2017-10-25T09:58:56.437Z,12.00
2017-10-25T09:59:57.813Z,12.40
2017-10-25T10:00:56.857Z,10.90
2017-10-25T10:01:57.485Z,10.70
2017-10-25T10:02:58.200Z,10.60
2017-10-25T10:03:56.764Z,15.30
2017-10-25T10:04:56.809Z,10.70
2017-10-25T10:05:56.847Z,9.30
2017-10-25T10:06:57.342Z,13.10
2017-10-25T10:07:56.937Z,14.60
2017-10-25T10:08:56.042Z,14.30
2017-10-25T10:09:56.407Z,12.30
2017-10-25T10:10:56.491Z,12.80
2017-10-25T10:11:57.708Z,10.20
2017-10-25T10:12:57.151Z,9.90
2017-10-25T10:13:56.327Z,10.20
2017-10-25T10:14:56.914Z,11.60
2017-10-25T10:15:57.346Z,19.40
2017-10-25T10:16:56.675Z,18.30
2017-10-25T10:17:57.253Z,11.20
2017-10-25T10:18:56.912Z,8.00
2017-10-25T10:19:57.150Z,16.60
2017-10-25T10:20:56.687Z,11.30
2017-10-25T10:21:57.140Z,11.00
2017-10-25T10:23:03.445Z,11.80
2017-10-25T10:24:05.327Z,11.20
2017-10-25T10:25:04.351Z,13.40
2017-10-25T10:26:03.354Z,10.40
2017-10-25T10:27:03.568Z,16.30
2017-10-25T10:28:04.081Z,17.30
2017-10-25T10:29:03.715Z,10.80
2017-10-25T10:30:04.081Z,9.80
2017-10-25T10:31:03.376Z,14.80
2017-10-25T10:32:03.775Z,12.50
2017-10-25T10:33:03.803Z,12.00
2017-10-25T10:34:04.519Z,13.70
2017-10-25T10:35:03.464Z,13.30
2017-10-25T10:36:03.690Z,14.50
2017-10-25T10:37:04.015Z,9.50
2017-10-25T10:38:03.523Z,12.40
2017-10-25T10:39:03.709Z,15.90
2017-10-25T10:40:04.549Z,16.10
2017-10-25T10:41:03.473Z,10.30
2017-10-25T10:42:03.647Z,12.30
2017-10-25T10:43:03.708Z,10.30
2017-10-25T10:44:04.260Z,12.30
2017-10-25T10:45:03.637Z,9.80
2017-10-25T10:46:04.108Z,10.40
2017-10-25T10:47:03.216Z,10.90
2017-10-25T10:48:03.192Z,11.30
2017-10-25T10:49:03.319Z,13.30
2017-10-25T10:50:04.210Z,12.60
2017-10-25T10:51:03.667Z,13.40
2017-10-25T10:52:04.304Z,9.10
2017-10-25T10:53:03.643Z,11.00
2017-10-25T10:54:04.263Z,9.50
2017-10-25T10:55:03.689Z,11.50
2017-10-25T10:56:04.035Z,10.10
2017-10-25T10:57:03.911Z,11.70
2017-10-25T10:58:03.445Z,11.30
2017-10-25T10:59:05.644Z,13.20
2017-10-25T11:00:03.702Z,14.90
2017-10-25T11:01:03.721Z,9.90
2017-10-25T11:02:03.453Z,11.30
2017-10-25T11:03:03.816Z,10.20
2017-10-25T11:04:02.858Z,10.10
2017-10-25T11:05:03.385Z,14.20
2017-10-25T11:06:03.784Z,10.90
2017-10-25T11:07:03.852Z,12.40
2017-10-25T11:08:03.356Z,14.90
2017-10-25T11:09:03.648Z,12.10
2017-10-25T11:10:03.912Z,14.90
2017-10-25T11:11:03.247Z,11.60
2017-10-25T11:12:03.436Z,14.30
2017-10-25T11:13:04.096Z,11.50
2017-10-25T11:14:03.012Z,15.40
2017-10-25T11:15:03.579Z,17.10
2017-10-25T11:16:03.842Z,13.80
2017-10-25T11:17:03.974Z,14.60
2017-10-25T11:18:03.773Z,14.80
2017-10-25T11:19:03.499Z,9.20
2017-10-25T11:20:03.691Z,13.10
2017-10-25T11:21:04.132Z,12.20
2017-10-25T11:22:03.347Z,12.50
2017-10-25T11:23:04.919Z,12.80
2017-10-25T11:24:03.253Z,13.80
2017-10-25T11:25:03.595Z,14.50
2017-10-25T11:26:04.007Z,11.10
2017-10-25T11:27:03.507Z,14.10
2017-10-25T11:28:04.369Z,11.00
2017-10-25T11:29:03.081Z,10.80
2017-10-25T11:30:03.035Z,16.30
2017-10-25T11:31:03.706Z,11.70
2017-10-25T11:32:04.917Z,11.60
2017-10-25T11:33:04.247Z,12.40
2017-10-25T11:34:04.918Z,14.00
2017-10-25T11:35:03.322Z,10.00
2017-10-25T11:36:03.412Z,12.40
2017-10-25T11:37:04.216Z,11.50
2017-10-25T11:38:03.736Z,11.70
2017-10-25T11:39:04.429Z,11.70
2017-10-25T11:40:03.780Z,10.30
2017-10-25T11:41:03.611Z,11.40
2017-10-25T11:42:03.625Z,14.80
2017-10-25T11:43:04.650Z,13.00
2017-10-25T11:44:03.744Z,14.00
2017-10-25T11:45:04.028Z,10.10
2017-10-25T11:46:03.551Z,9.70
2017-10-25T11:47:03.891Z,9.50
2017-10-25T11:48:03.856Z,9.90
2017-10-25T11:49:02.852Z,13.80
2017-10-25T11:50:04.648Z,9.10
2017-10-25T11:51:04.006Z,9.40
2017-10-25T11:52:03.527Z,13.70
2017-10-25T11:53:03.500Z,11.20
2017-10-25T11:54:03.720Z,10.50
2017-10-25T11:55:04.179Z,12.80
2017-10-25T11:56:05.053Z,9.40
2017-10-25T11:57:04.913Z,10.60
2017-10-25T11:58:06.619Z,12.60
2017-10-25T11:59:04.617Z,10.90
2017-10-25T12:00:03.475Z,13.40
2017-10-25T12:01:04.093Z,12.60
2017-10-25T12:02:03.627Z,12.90
2017-10-25T12:03:04.169Z,9.70
2017-10-25T12:04:03.476Z,13.50
2017-10-25T12:05:03.443Z,9.20
2017-10-25T12:06:03.842Z,9.30
2017-10-25T12:07:03.422Z,16.00
2017-10-25T12:08:03.429Z,13.70
2017-10-25T12:09:03.439Z,13.40
2017-10-25T12:10:04.917Z,9.80
2017-10-25T12:11:03.432Z,17.30
2017-10-25T12:12:04.300Z,13.20
2017-10-25T12:13:03.974Z,12.50
2017-10-25T12:14:03.546Z,13.80
2017-10-25T12:15:03.627Z,16.20
2017-10-25T12:16:04.073Z,13.70
2017-10-25T12:17:03.234Z,15.80
2017-10-25T12:18:03.587Z,13.70
2017-10-25T12:19:04.411Z,17.10
2017-10-25T12:20:04.853Z,20.20
2017-10-25T12:21:04.300Z,15.10
2017-10-25T12:22:04.714Z,18.90
2017-10-25T12:23:03.431Z,13.80
2017-10-25T12:24:03.948Z,14.40
2017-10-25T12:25:03.631Z,22.60
2017-10-25T12:26:03.539Z,14.80
2017-10-25T12:27:04.199Z,15.60
2017-10-25T12:28:03.339Z,19.00
2017-10-25T12:29:03.538Z,16.00
2017-10-25T12:30:03.632Z,14.20
2017-10-25T12:31:04.241Z,14.10
2017-10-25T12:32:03.942Z,16.40
2017-10-25T12:33:03.897Z,15.40
2017-10-25T12:34:04.022Z,19.30
2017-10-25T12:35:03.668Z,14.00
2017-10-25T12:36:04.148Z,18.00
2017-10-25T12:37:03.531Z,14.20
2017-10-25T12:38:04.432Z,16.10
2017-10-25T12:39:04.115Z,14.20
2017-10-25T12:40:04.273Z,15.30
2017-10-25T12:41:04.175Z,14.60
2017-10-25T12:42:03.507Z,16.60
2017-10-25T12:43:03.910Z,14.90
2017-10-25T12:44:03.511Z,16.10
2017-10-25T12:45:04.175Z,15.30
2017-10-25T12:46:03.758Z,20.30
2017-10-25T12:47:03.399Z,21.40
2017-10-25T12:48:05.195Z,16.80
2017-10-25T12:49:03.807Z,18.20
2017-10-25T12:50:04.595Z,17.90
2017-10-25T12:51:05.056Z,15.30
2017-10-25T12:52:03.830Z,13.40
2017-10-25T12:53:04.533Z,13.90
2017-10-25T12:54:03.845Z,15.20
2017-10-25T12:55:03.433Z,13.30
2017-10-25T12:56:03.996Z,15.30